sensor_id;sensor_type;location;lat;lon;timestamp;temperature;humidity
60027;DHT22;45891;53.006;6.512;2023-03-01T00:01:58;-1.30;99.90
60027;DHT22;45891;53.006;6.512;2023-03-01T00:04:24;-1.40;99.90
60027;DHT22;45891;53.006;6.512;2023-03-01T00:06:51;-1.40;99.90
60027;DHT22;45891;53.006;6.512;2023-03-01T00:09:17;-1.50;99.90
60027;DHT22;45891;53.006;6.512;2023-03-01T00:11:44;-1.40;99.90
60027;DHT22;45891;53.006;6.512;2023-03-01T00:14:10;-1.50;99.90
60027;DHT22;45891;53.006;6.512;2023-03-01T00:16:39;-1.60;99.90
60027;DHT22;45891;53.006;6.512;2023-03-01T00:19:15;-1.60;99.90
60027;DHT22;45891;53.006;6.512;2023-03-01T00:21:42;-1.60;99.90
60027;DHT22;45891;53.006;6.512;2023-03-01T00:24:08;-1.60;99.90
60027;DHT22;45891;53.006;6.512;2023-03-01T00:26:35;-1.70;99.90
60027;DHT22;45891;53.006;6.512;2023-03-01T00:29:01;-1.70;99.90
60027;DHT22;45891;53.006;6.512;2023-03-01T00:31:27;-1.70;99.90
60027;DHT22;45891;53.006;6.512;2023-03-01T00:33:55;-1.80;99.90
60027;DHT22;45891;53.006;6.512;2023-03-01T00:36:25;-1.80;99.90
60027;DHT22;45891;53.006;6.512;2023-03-01T00:38:52;-1.80;99.90
60027;DHT22;45891;53.006;6.512;2023-03-01T00:41:21;-1.80;99.90
60027;DHT22;45891;53.006;6.512;2023-03-01T00:43:49;-1.70;99.90
60027;DHT22;45891;53.006;6.512;2023-03-01T00:46:16;-1.60;99.90
60027;DHT22;45891;53.006;6.512;2023-03-01T00:48:43;-1.60;99.90
60027;DHT22;45891;53.006;6.512;2023-03-01T00:51:16;-1.50;99.90
60027;DHT22;45891;53.006;6.512;2023-03-01T00:53:45;-1.40;99.90
60027;DHT22;45891;53.006;6.512;2023-03-01T00:56:13;-1.40;99.90
60027;DHT22;45891;53.006;6.512;2023-03-01T00:58:39;-1.30;99.90
60027;DHT22;45891;53.006;6.512;2023-03-01T01:01:21;-1.30;99.90
60027;DHT22;45891;53.006;6.512;2023-03-01T01:03:51;-1.20;99.90
60027;DHT22;45891;53.006;6.512;2023-03-01T01:06:19;-1.30;99.90
60027;DHT22;45891;53.006;6.512;2023-03-01T01:08:45;-1.20;99.90
60027;DHT22;45891;53.006;6.512;2023-03-01T01:11:12;-1.20;99.90
60027;DHT22;45891;53.006;6.512;2023-03-01T01:13:38;-1.20;99.90
60027;DHT22;45891;53.006;6.512;2023-03-01T01:16:05;-1.10;99.90
60027;DHT22;45891;53.006;6.512;2023-03-01T01:18:31;-1.20;99.90
60027;DHT22;45891;53.006;6.512;2023-03-01T01:20:57;-1.10;99.90
60027;DHT22;45891;53.006;6.512;2023-03-01T01:23:23;-1.10;99.90
60027;DHT22;45891;53.006;6.512;2023-03-01T01:25:49;-1.20;99.90
60027;DHT22;45891;53.006;6.512;2023-03-01T01:28:15;-1.20;99.90
60027;DHT22;45891;53.006;6.512;2023-03-01T01:30:42;-1.10;99.90
60027;DHT22;45891;53.006;6.512;2023-03-01T01:33:07;-1.20;99.90
60027;DHT22;45891;53.006;6.512;2023-03-01T01:35:33;-1.20;99.90
60027;DHT22;45891;53.006;6.512;2023-03-01T01:37:59;-1.20;99.90
60027;DHT22;45891;53.006;6.512;2023-03-01T01:40:25;-1.20;99.90
60027;DHT22;45891;53.006;6.512;2023-03-01T01:42:51;-1.30;99.90
60027;DHT22;45891;53.006;6.512;2023-03-01T01:45:28;-1.30;99.90
60027;DHT22;45891;53.006;6.512;2023-03-01T01:47:54;-1.30;99.90
60027;DHT22;45891;53.006;6.512;2023-03-01T01:50:21;-1.50;99.90
60027;DHT22;45891;53.006;6.512;2023-03-01T01:52:48;-1.50;99.90
60027;DHT22;45891;53.006;6.512;2023-03-01T01:55:15;-1.50;99.90
60027;DHT22;45891;53.006;6.512;2023-03-01T01:57:44;-1.60;99.90
60027;DHT22;45891;53.006;6.512;2023-03-01T02:00:15;-1.50;99.90
60027;DHT22;45891;53.006;6.512;2023-03-01T02:02:42;-1.60;99.90
60027;DHT22;45891;53.006;6.512;2023-03-01T02:05:10;-1.60;99.90
60027;DHT22;45891;53.006;6.512;2023-03-01T02:07:37;-1.70;99.90
60027;DHT22;45891;53.006;6.512;2023-03-01T02:10:04;-1.70;99.90
60027;DHT22;45891;53.006;6.512;2023-03-01T02:12:30;-1.70;99.90
60027;DHT22;45891;53.006;6.512;2023-03-01T02:14:56;-1.70;99.90
60027;DHT22;45891;53.006;6.512;2023-03-01T02:17:22;-1.70;99.90
60027;DHT22;45891;53.006;6.512;2023-03-01T02:20:07;-1.80;99.90
60027;DHT22;45891;53.006;6.512;2023-03-01T02:22:35;-1.80;99.90
60027;DHT22;45891;53.006;6.512;2023-03-01T02:27:33;-1.80;99.90
60027;DHT22;45891;53.006;6.512;2023-03-01T02:30:02;-2.00;99.90
60027;DHT22;45891;53.006;6.512;2023-03-01T02:32:28;-2.00;99.90
60027;DHT22;45891;53.006;6.512;2023-03-01T02:34:54;-2.00;99.90
60027;DHT22;45891;53.006;6.512;2023-03-01T02:37:21;-2.00;99.90
60027;DHT22;45891;53.006;6.512;2023-03-01T02:39:51;-2.00;99.90
60027;DHT22;45891;53.006;6.512;2023-03-01T02:42:21;-2.00;99.90
60027;DHT22;45891;53.006;6.512;2023-03-01T02:44:48;-2.00;99.90
60027;DHT22;45891;53.006;6.512;2023-03-01T02:47:14;-2.00;99.90
60027;DHT22;45891;53.006;6.512;2023-03-01T02:49:40;-2.10;99.90
60027;DHT22;45891;53.006;6.512;2023-03-01T02:57:38;-2.20;99.90
60027;DHT22;45891;53.006;6.512;2023-03-01T03:00:08;-2.10;99.90
60027;DHT22;45891;53.006;6.512;2023-03-01T03:02:35;-2.20;99.90
60027;DHT22;45891;53.006;6.512;2023-03-01T03:05:07;-2.10;99.90
60027;DHT22;45891;53.006;6.512;2023-03-01T03:07:34;-2.20;99.90
60027;DHT22;45891;53.006;6.512;2023-03-01T03:10:02;-2.20;99.90
60027;DHT22;45891;53.006;6.512;2023-03-01T03:12:28;-2.20;99.90
60027;DHT22;45891;53.006;6.512;2023-03-01T03:14:54;-2.20;99.90
60027;DHT22;45891;53.006;6.512;2023-03-01T03:17:19;-2.30;99.90
60027;DHT22;45891;53.006;6.512;2023-03-01T03:19:45;-2.20;99.90
60027;DHT22;45891;53.006;6.512;2023-03-01T03:22:12;-2.20;99.90
60027;DHT22;45891;53.006;6.512;2023-03-01T03:24:37;-2.30;99.90
60027;DHT22;45891;53.006;6.512;2023-03-01T03:27:04;-2.30;99.90
60027;DHT22;45891;53.006;6.512;2023-03-01T03:29:30;-2.40;99.90
60027;DHT22;45891;53.006;6.512;2023-03-01T03:31:57;-2.40;99.90
60027;DHT22;45891;53.006;6.512;2023-03-01T03:34:23;-2.50;99.90
60027;DHT22;45891;53.006;6.512;2023-03-01T03:36:56;-2.50;99.90
60027;DHT22;45891;53.006;6.512;2023-03-01T03:39:28;-2.50;99.90
60027;DHT22;45891;53.006;6.512;2023-03-01T03:42:00;-2.50;99.90
60027;DHT22;45891;53.006;6.512;2023-03-01T03:44:27;-2.50;99.90
60027;DHT22;45891;53.006;6.512;2023-03-01T03:46:53;-2.60;99.90
60027;DHT22;45891;53.006;6.512;2023-03-01T03:49:19;-2.60;99.90
60027;DHT22;45891;53.006;6.512;2023-03-01T03:51:45;-2.50;99.90
60027;DHT22;45891;53.006;6.512;2023-03-01T03:54:11;-2.50;99.90
60027;DHT22;45891;53.006;6.512;2023-03-01T03:56:37;-2.50;99.90
60027;DHT22;45891;53.006;6.512;2023-03-01T03:59:03;-2.50;99.90
60027;DHT22;45891;53.006;6.512;2023-03-01T04:01:29;-2.60;99.90
60027;DHT22;45891;53.006;6.512;2023-03-01T04:03:55;-2.50;99.90
60027;DHT22;45891;53.006;6.512;2023-03-01T04:06:21;-2.50;99.90
60027;DHT22;45891;53.006;6.512;2023-03-01T04:08:47;-2.50;99.90
60027;DHT22;45891;53.006;6.512;2023-03-01T04:11:16;-2.60;99.90
60027;DHT22;45891;53.006;6.512;2023-03-01T04:13:55;-2.70;99.90
60027;DHT22;45891;53.006;6.512;2023-03-01T04:16:22;-2.70;99.90
60027;DHT22;45891;53.006;6.512;2023-03-01T04:18:47;-2.60;99.90
60027;DHT22;45891;53.006;6.512;2023-03-01T04:21:13;-2.60;99.90
60027;DHT22;45891;53.006;6.512;2023-03-01T04:23:39;-2.70;99.90
60027;DHT22;45891;53.006;6.512;2023-03-01T04:26:06;-2.70;99.90
60027;DHT22;45891;53.006;6.512;2023-03-01T04:28:36;-2.80;99.90
60027;DHT22;45891;53.006;6.512;2023-03-01T04:31:12;-2.70;99.90
60027;DHT22;45891;53.006;6.512;2023-03-01T04:33:48;-2.80;99.90
60027;DHT22;45891;53.006;6.512;2023-03-01T04:36:18;-2.80;99.90
60027;DHT22;45891;53.006;6.512;2023-03-01T04:38:44;-2.80;99.90
60027;DHT22;45891;53.006;6.512;2023-03-01T04:41:13;-2.90;99.90
60027;DHT22;45891;53.006;6.512;2023-03-01T04:43:39;-3.00;99.90
60027;DHT22;45891;53.006;6.512;2023-03-01T04:46:06;-3.00;99.90
60027;DHT22;45891;53.006;6.512;2023-03-01T04:48:35;-3.00;99.90
60027;DHT22;45891;53.006;6.512;2023-03-01T04:51:01;-3.10;99.90
60027;DHT22;45891;53.006;6.512;2023-03-01T04:53:27;-3.10;99.90
60027;DHT22;45891;53.006;6.512;2023-03-01T04:55:56;-3.10;99.90
60027;DHT22;45891;53.006;6.512;2023-03-01T04:58:23;-3.20;99.90
60027;DHT22;45891;53.006;6.512;2023-03-01T05:00:49;-3.10;99.90
60027;DHT22;45891;53.006;6.512;2023-03-01T05:03:15;-3.20;99.90
60027;DHT22;45891;53.006;6.512;2023-03-01T05:05:44;-3.20;99.90
60027;DHT22;45891;53.006;6.512;2023-03-01T05:08:10;-3.20;99.90
60027;DHT22;45891;53.006;6.512;2023-03-01T05:10:50;-3.20;99.90
60027;DHT22;45891;53.006;6.512;2023-03-01T05:13:16;-3.30;99.90
60027;DHT22;45891;53.006;6.512;2023-03-01T05:16:20;-3.40;99.90
60027;DHT22;45891;53.006;6.512;2023-03-01T05:18:39;-3.40;99.90
60027;DHT22;45891;53.006;6.512;2023-03-01T05:21:09;-3.40;99.90
60027;DHT22;45891;53.006;6.512;2023-03-01T05:23:36;-3.40;99.90
60027;DHT22;45891;53.006;6.512;2023-03-01T05:26:03;-3.50;99.90
60027;DHT22;45891;53.006;6.512;2023-03-01T05:28:29;-3.40;99.90
60027;DHT22;45891;53.006;6.512;2023-03-01T05:30:56;-3.50;99.90
60027;DHT22;45891;53.006;6.512;2023-03-01T05:33:22;-3.50;99.90
60027;DHT22;45891;53.006;6.512;2023-03-01T05:35:48;-3.50;99.90
60027;DHT22;45891;53.006;6.512;2023-03-01T05:38:15;-3.50;99.90
60027;DHT22;45891;53.006;6.512;2023-03-01T05:40:41;-3.60;99.90
60027;DHT22;45891;53.006;6.512;2023-03-01T05:43:07;-3.60;99.90
60027;DHT22;45891;53.006;6.512;2023-03-01T05:45:35;-3.70;99.90
60027;DHT22;45891;53.006;6.512;2023-03-01T05:48:05;-3.70;99.90
60027;DHT22;45891;53.006;6.512;2023-03-01T05:50:35;-3.70;99.90
60027;DHT22;45891;53.006;6.512;2023-03-01T05:53:19;-3.60;99.90
60027;DHT22;45891;53.006;6.512;2023-03-01T05:55:48;-3.60;99.90
60027;DHT22;45891;53.006;6.512;2023-03-01T05:58:16;-3.70;99.90
60027;DHT22;45891;53.006;6.512;2023-03-01T06:00:43;-3.70;99.90
60027;DHT22;45891;53.006;6.512;2023-03-01T06:03:10;-3.60;99.90
60027;DHT22;45891;53.006;6.512;2023-03-01T06:05:36;-3.70;99.90
60027;DHT22;45891;53.006;6.512;2023-03-01T06:08:02;-3.60;99.90
60027;DHT22;45891;53.006;6.512;2023-03-01T06:10:28;-3.70;99.90
60027;DHT22;45891;53.006;6.512;2023-03-01T06:12:55;-3.70;99.90
60027;DHT22;45891;53.006;6.512;2023-03-01T06:15:21;-3.70;99.90
60027;DHT22;45891;53.006;6.512;2023-03-01T06:17:47;-3.70;99.90
60027;DHT22;45891;53.006;6.512;2023-03-01T06:20:15;-3.70;99.90
60027;DHT22;45891;53.006;6.512;2023-03-01T06:22:41;-3.70;99.90
60027;DHT22;45891;53.006;6.512;2023-03-01T06:25:07;-3.60;99.90
60027;DHT22;45891;53.006;6.512;2023-03-01T06:27:33;-3.70;99.90
60027;DHT22;45891;53.006;6.512;2023-03-01T06:29:59;-3.60;99.90
60027;DHT22;45891;53.006;6.512;2023-03-01T06:32:25;-3.50;99.90
60027;DHT22;45891;53.006;6.512;2023-03-01T06:34:51;-3.60;99.90
60027;DHT22;45891;53.006;6.512;2023-03-01T06:37:17;-3.50;99.90
60027;DHT22;45891;53.006;6.512;2023-03-01T06:39:43;-3.50;99.90
60027;DHT22;45891;53.006;6.512;2023-03-01T06:42:09;-3.50;99.90
60027;DHT22;45891;53.006;6.512;2023-03-01T06:44:36;-3.50;99.90
60027;DHT22;45891;53.006;6.512;2023-03-01T06:47:02;-3.60;99.90
60027;DHT22;45891;53.006;6.512;2023-03-01T06:49:29;-3.60;99.90
60027;DHT22;45891;53.006;6.512;2023-03-01T06:51:56;-3.60;99.90
60027;DHT22;45891;53.006;6.512;2023-03-01T06:54:22;-3.50;99.90
60027;DHT22;45891;53.006;6.512;2023-03-01T06:56:48;-3.50;99.90
60027;DHT22;45891;53.006;6.512;2023-03-01T06:59:15;-3.40;99.90
60027;DHT22;45891;53.006;6.512;2023-03-01T07:01:41;-3.50;99.90
60027;DHT22;45891;53.006;6.512;2023-03-01T07:04:07;-3.40;99.90
60027;DHT22;45891;53.006;6.512;2023-03-01T07:06:33;-3.50;99.90
60027;DHT22;45891;53.006;6.512;2023-03-01T07:08:59;-3.30;99.90
60027;DHT22;45891;53.006;6.512;2023-03-01T07:11:24;-3.40;99.90
60027;DHT22;45891;53.006;6.512;2023-03-01T07:13:50;-3.30;99.90
60027;DHT22;45891;53.006;6.512;2023-03-01T07:16:16;-3.30;99.90
60027;DHT22;45891;53.006;6.512;2023-03-01T07:18:42;-3.20;99.90
60027;DHT22;45891;53.006;6.512;2023-03-01T07:21:08;-3.10;99.90
60027;DHT22;45891;53.006;6.512;2023-03-01T07:23:35;-3.00;99.90
60027;DHT22;45891;53.006;6.512;2023-03-01T07:26:01;-3.00;99.90
60027;DHT22;45891;53.006;6.512;2023-03-01T07:28:27;-2.80;99.90
60027;DHT22;45891;53.006;6.512;2023-03-01T07:30:53;-2.80;99.90
60027;DHT22;45891;53.006;6.512;2023-03-01T07:33:19;-2.70;99.90
60027;DHT22;45891;53.006;6.512;2023-03-01T07:35:45;-2.70;99.90
60027;DHT22;45891;53.006;6.512;2023-03-01T07:38:11;-2.60;99.90
60027;DHT22;45891;53.006;6.512;2023-03-01T07:40:37;-2.60;99.90
60027;DHT22;45891;53.006;6.512;2023-03-01T07:43:03;-2.60;99.90
60027;DHT22;45891;53.006;6.512;2023-03-01T07:45:29;-2.50;99.90
60027;DHT22;45891;53.006;6.512;2023-03-01T07:47:55;-2.50;99.90
60027;DHT22;45891;53.006;6.512;2023-03-01T07:50:21;-2.40;99.90
60027;DHT22;45891;53.006;6.512;2023-03-01T07:52:47;-2.30;99.90
60027;DHT22;45891;53.006;6.512;2023-03-01T07:55:14;-2.20;99.90
60027;DHT22;45891;53.006;6.512;2023-03-01T07:57:40;-2.20;99.90
60027;DHT22;45891;53.006;6.512;2023-03-01T08:00:07;-2.00;99.90
60027;DHT22;45891;53.006;6.512;2023-03-01T08:02:33;-2.00;99.90
60027;DHT22;45891;53.006;6.512;2023-03-01T08:04:58;-1.90;99.90
60027;DHT22;45891;53.006;6.512;2023-03-01T08:07:24;-1.80;99.90
60027;DHT22;45891;53.006;6.512;2023-03-01T08:09:50;-1.70;99.90
60027;DHT22;45891;53.006;6.512;2023-03-01T08:12:16;-1.60;99.90
60027;DHT22;45891;53.006;6.512;2023-03-01T08:14:42;-1.50;99.90
60027;DHT22;45891;53.006;6.512;2023-03-01T08:17:08;-1.40;99.90
60027;DHT22;45891;53.006;6.512;2023-03-01T08:19:34;-1.30;99.90
60027;DHT22;45891;53.006;6.512;2023-03-01T08:22:03;-1.20;99.90
60027;DHT22;45891;53.006;6.512;2023-03-01T08:24:29;-1.00;99.90
60027;DHT22;45891;53.006;6.512;2023-03-01T08:26:55;-0.90;99.90
60027;DHT22;45891;53.006;6.512;2023-03-01T08:29:22;-0.80;99.90
60027;DHT22;45891;53.006;6.512;2023-03-01T08:31:48;-0.70;99.90
60027;DHT22;45891;53.006;6.512;2023-03-01T08:34:14;-0.60;99.90
60027;DHT22;45891;53.006;6.512;2023-03-01T08:36:41;-0.50;99.90
60027;DHT22;45891;53.006;6.512;2023-03-01T08:39:12;-0.40;99.90
60027;DHT22;45891;53.006;6.512;2023-03-01T08:41:38;-0.30;99.90
60027;DHT22;45891;53.006;6.512;2023-03-01T08:44:04;-0.30;99.90
60027;DHT22;45891;53.006;6.512;2023-03-01T08:46:35;-0.10;99.90
60027;DHT22;45891;53.006;6.512;2023-03-01T08:49:08;-0.10;99.90
60027;DHT22;45891;53.006;6.512;2023-03-01T08:51:38;0.00;99.90
60027;DHT22;45891;53.006;6.512;2023-03-01T08:54:04;0.10;99.90
60027;DHT22;45891;53.006;6.512;2023-03-01T08:56:31;0.10;99.90
60027;DHT22;45891;53.006;6.512;2023-03-01T08:58:57;0.30;99.90
60027;DHT22;45891;53.006;6.512;2023-03-01T09:01:23;0.30;99.90
60027;DHT22;45891;53.006;6.512;2023-03-01T09:03:49;0.40;99.90
60027;DHT22;45891;53.006;6.512;2023-03-01T09:06:15;0.40;99.90
60027;DHT22;45891;53.006;6.512;2023-03-01T09:08:42;0.50;99.90
60027;DHT22;45891;53.006;6.512;2023-03-01T09:11:09;0.60;99.90
60027;DHT22;45891;53.006;6.512;2023-03-01T09:13:35;0.70;99.90
60027;DHT22;45891;53.006;6.512;2023-03-01T09:16:01;0.80;99.90
60027;DHT22;45891;53.006;6.512;2023-03-01T09:18:28;0.90;99.90
60027;DHT22;45891;53.006;6.512;2023-03-01T09:21:03;1.00;99.90
60027;DHT22;45891;53.006;6.512;2023-03-01T09:23:33;1.20;99.90
60027;DHT22;45891;53.006;6.512;2023-03-01T09:26:00;1.30;99.90
60027;DHT22;45891;53.006;6.512;2023-03-01T09:28:26;1.40;99.90
60027;DHT22;45891;53.006;6.512;2023-03-01T09:30:52;1.50;99.90
60027;DHT22;45891;53.006;6.512;2023-03-01T09:33:18;1.50;99.90
60027;DHT22;45891;53.006;6.512;2023-03-01T09:35:44;1.60;99.90
60027;DHT22;45891;53.006;6.512;2023-03-01T09:38:13;1.70;99.90
60027;DHT22;45891;53.006;6.512;2023-03-01T09:40:43;1.70;99.90
60027;DHT22;45891;53.006;6.512;2023-03-01T09:43:19;1.90;99.90
60027;DHT22;45891;53.006;6.512;2023-03-01T09:45:47;2.00;99.90
60027;DHT22;45891;53.006;6.512;2023-03-01T09:48:16;2.00;99.90
60027;DHT22;45891;53.006;6.512;2023-03-01T09:50:43;2.10;99.90
60027;DHT22;45891;53.006;6.512;2023-03-01T09:53:19;2.20;99.90
60027;DHT22;45891;53.006;6.512;2023-03-01T09:55:48;2.30;99.90
60027;DHT22;45891;53.006;6.512;2023-03-01T09:58:38;2.40;99.90
60027;DHT22;45891;53.006;6.512;2023-03-01T10:04:04;2.60;99.90
60027;DHT22;45891;53.006;6.512;2023-03-01T10:06:32;2.70;99.90
60027;DHT22;45891;53.006;6.512;2023-03-01T10:11:53;2.80;99.90
60027;DHT22;45891;53.006;6.512;2023-03-01T10:19:27;3.10;99.90
60027;DHT22;45891;53.006;6.512;2023-03-01T10:21:54;3.20;99.90
60027;DHT22;45891;53.006;6.512;2023-03-01T10:24:23;3.30;99.90
60027;DHT22;45891;53.006;6.512;2023-03-01T10:27:04;3.30;99.90
60027;DHT22;45891;53.006;6.512;2023-03-01T10:29:34;3.40;99.90
60027;DHT22;45891;53.006;6.512;2023-03-01T10:32:03;3.50;99.90
60027;DHT22;45891;53.006;6.512;2023-03-01T10:34:30;3.60;99.90
60027;DHT22;45891;53.006;6.512;2023-03-01T10:36:58;3.70;99.90
60027;DHT22;45891;53.006;6.512;2023-03-01T10:39:25;3.80;99.90
60027;DHT22;45891;53.006;6.512;2023-03-01T10:42:35;3.80;99.90
60027;DHT22;45891;53.006;6.512;2023-03-01T10:44:45;3.90;99.90
60027;DHT22;45891;53.006;6.512;2023-03-01T10:47:13;4.00;99.90
60027;DHT22;45891;53.006;6.512;2023-03-01T10:49:39;4.10;99.90
60027;DHT22;45891;53.006;6.512;2023-03-01T10:52:17;4.10;99.90
60027;DHT22;45891;53.006;6.512;2023-03-01T10:57:30;4.30;99.90
60027;DHT22;45891;53.006;6.512;2023-03-01T11:00:16;4.40;99.90
60027;DHT22;45891;53.006;6.512;2023-03-01T11:02:49;4.40;99.90
60027;DHT22;45891;53.006;6.512;2023-03-01T11:05:18;4.50;99.90
60027;DHT22;45891;53.006;6.512;2023-03-01T11:07:51;4.50;99.90
60027;DHT22;45891;53.006;6.512;2023-03-01T11:10:18;4.60;99.90
60027;DHT22;45891;53.006;6.512;2023-03-01T11:12:45;4.60;99.90
60027;DHT22;45891;53.006;6.512;2023-03-01T11:15:25;4.70;99.90
60027;DHT22;45891;53.006;6.512;2023-03-01T11:17:51;4.80;99.90
60027;DHT22;45891;53.006;6.512;2023-03-01T11:20:35;4.80;99.90
60027;DHT22;45891;53.006;6.512;2023-03-01T11:23:03;4.90;99.90
60027;DHT22;45891;53.006;6.512;2023-03-01T11:25:31;5.00;99.90
60027;DHT22;45891;53.006;6.512;2023-03-01T11:27:58;5.10;99.90
60027;DHT22;45891;53.006;6.512;2023-03-01T11:30:34;5.20;99.90
60027;DHT22;45891;53.006;6.512;2023-03-01T11:35:37;5.70;99.90
60027;DHT22;45891;53.006;6.512;2023-03-01T11:40:57;6.80;99.90
60027;DHT22;45891;53.006;6.512;2023-03-01T11:48:32;9.20;99.90
60027;DHT22;45891;53.006;6.512;2023-03-01T11:51:02;9.80;99.90
60027;DHT22;45891;53.006;6.512;2023-03-01T11:56:38;10.90;99.90
60027;DHT22;45891;53.006;6.512;2023-03-01T12:01:44;12.10;99.90
60027;DHT22;45891;53.006;6.512;2023-03-01T12:07:01;12.80;99.40
60027;DHT22;45891;53.006;6.512;2023-03-01T12:12:25;13.10;99.40
60027;DHT22;45891;53.006;6.512;2023-03-01T12:20:14;14.30;98.50
60027;DHT22;45891;53.006;6.512;2023-03-01T12:25:25;14.80;97.70
60027;DHT22;45891;53.006;6.512;2023-03-01T12:32:58;14.90;97.50
60027;DHT22;45891;53.006;6.512;2023-03-01T12:35:32;15.00;97.00
60027;DHT22;45891;53.006;6.512;2023-03-01T12:45:48;15.80;95.30
60027;DHT22;45891;53.006;6.512;2023-03-01T12:51:13;16.20;95.50
60027;DHT22;45891;53.006;6.512;2023-03-01T12:53:50;16.40;94.50
60027;DHT22;45891;53.006;6.512;2023-03-01T12:56:20;16.50;95.20
60027;DHT22;45891;53.006;6.512;2023-03-01T13:01:22;16.20;94.70
60027;DHT22;45891;53.006;6.512;2023-03-01T13:04:02;16.40;94.50
60027;DHT22;45891;53.006;6.512;2023-03-01T13:09:34;16.80;94.40
60027;DHT22;45891;53.006;6.512;2023-03-01T13:12:01;16.70;94.50
60027;DHT22;45891;53.006;6.512;2023-03-01T13:16:58;17.30;94.30
60027;DHT22;45891;53.006;6.512;2023-03-01T13:19:27;17.70;94.00
60027;DHT22;45891;53.006;6.512;2023-03-01T13:21:57;18.10;93.10
60027;DHT22;45891;53.006;6.512;2023-03-01T13:24:27;18.00;93.70
60027;DHT22;45891;53.006;6.512;2023-03-01T13:34:58;18.30;92.80
60027;DHT22;45891;53.006;6.512;2023-03-01T13:37:25;18.70;93.20
60027;DHT22;45891;53.006;6.512;2023-03-01T13:39:52;18.60;92.60
60027;DHT22;45891;53.006;6.512;2023-03-01T13:44:56;18.70;90.90
60027;DHT22;45891;53.006;6.512;2023-03-01T13:47:23;18.40;92.10
60027;DHT22;45891;53.006;6.512;2023-03-01T13:49:58;18.60;91.70
60027;DHT22;45891;53.006;6.512;2023-03-01T13:52:38;18.40;92.00
60027;DHT22;45891;53.006;6.512;2023-03-01T13:55:05;18.60;92.10
60027;DHT22;45891;53.006;6.512;2023-03-01T13:57:33;18.80;92.10
60027;DHT22;45891;53.006;6.512;2023-03-01T14:00:00;19.00;91.20
60027;DHT22;45891;53.006;6.512;2023-03-01T14:02:26;19.10;91.60
60027;DHT22;45891;53.006;6.512;2023-03-01T14:04:58;19.20;91.50
60027;DHT22;45891;53.006;6.512;2023-03-01T14:07:24;19.30;90.20
60027;DHT22;45891;53.006;6.512;2023-03-01T14:09:52;19.20;87.70
60027;DHT22;45891;53.006;6.512;2023-03-01T14:12:36;19.00;89.00
60027;DHT22;45891;53.006;6.512;2023-03-01T14:17:55;19.40;90.70
60027;DHT22;45891;53.006;6.512;2023-03-01T14:20:32;19.50;90.90
60027;DHT22;45891;53.006;6.512;2023-03-01T14:23:02;19.10;90.50
60027;DHT22;45891;53.006;6.512;2023-03-01T14:25:34;18.60;89.40
60027;DHT22;45891;53.006;6.512;2023-03-01T14:30:50;18.40;90.10
60027;DHT22;45891;53.006;6.512;2023-03-01T14:33:35;18.50;90.70
60027;DHT22;45891;53.006;6.512;2023-03-01T14:36:08;18.40;90.00
60027;DHT22;45891;53.006;6.512;2023-03-01T14:41:02;18.70;89.40
60027;DHT22;45891;53.006;6.512;2023-03-01T14:43:29;19.00;89.60
60027;DHT22;45891;53.006;6.512;2023-03-01T14:45:56;19.00;88.80
60027;DHT22;45891;53.006;6.512;2023-03-01T14:48:22;19.30;88.50
60027;DHT22;45891;53.006;6.512;2023-03-01T14:50:48;18.90;88.10
60027;DHT22;45891;53.006;6.512;2023-03-01T14:53:16;18.90;86.80
60027;DHT22;45891;53.006;6.512;2023-03-01T14:55:44;18.80;87.40
60027;DHT22;45891;53.006;6.512;2023-03-01T14:58:15;18.70;86.60
60027;DHT22;45891;53.006;6.512;2023-03-01T15:01:15;19.00;87.30
60027;DHT22;45891;53.006;6.512;2023-03-01T15:03:38;19.00;87.00
60027;DHT22;45891;53.006;6.512;2023-03-01T15:06:07;19.00;86.20
60027;DHT22;45891;53.006;6.512;2023-03-01T15:08:33;19.10;86.20
60027;DHT22;45891;53.006;6.512;2023-03-01T15:13:28;18.90;87.90
60027;DHT22;45891;53.006;6.512;2023-03-01T15:16:00;19.20;87.70
60027;DHT22;45891;53.006;6.512;2023-03-01T15:18:27;19.40;86.90
60027;DHT22;45891;53.006;6.512;2023-03-01T15:20:54;19.20;86.00
60027;DHT22;45891;53.006;6.512;2023-03-01T15:25:47;18.80;86.50
60027;DHT22;45891;53.006;6.512;2023-03-01T15:28:32;18.40;86.50
60027;DHT22;45891;53.006;6.512;2023-03-01T15:33:30;17.10;87.20
60027;DHT22;45891;53.006;6.512;2023-03-01T15:35:57;15.50;89.00
60027;DHT22;45891;53.006;6.512;2023-03-01T15:40:52;13.10;91.20
60027;DHT22;45891;53.006;6.512;2023-03-01T15:46:04;11.50;93.10
60027;DHT22;45891;53.006;6.512;2023-03-01T15:48:30;11.00;93.40
60027;DHT22;45891;53.006;6.512;2023-03-01T15:50:57;10.60;94.00
60027;DHT22;45891;53.006;6.512;2023-03-01T15:53:24;10.10;94.50
60027;DHT22;45891;53.006;6.512;2023-03-01T15:55:50;9.90;95.10
60027;DHT22;45891;53.006;6.512;2023-03-01T15:58:18;9.60;95.40
60027;DHT22;45891;53.006;6.512;2023-03-01T16:00:45;9.40;95.80
60027;DHT22;45891;53.006;6.512;2023-03-01T16:03:12;9.30;96.10
60027;DHT22;45891;53.006;6.512;2023-03-01T16:05:38;9.10;96.40
60027;DHT22;45891;53.006;6.512;2023-03-01T16:08:05;9.00;96.50
60027;DHT22;45891;53.006;6.512;2023-03-01T16:10:32;8.90;96.80
60027;DHT22;45891;53.006;6.512;2023-03-01T16:12:58;8.80;96.90
60027;DHT22;45891;53.006;6.512;2023-03-01T16:15:28;8.70;97.20
60027;DHT22;45891;53.006;6.512;2023-03-01T16:17:54;8.50;97.40
60027;DHT22;45891;53.006;6.512;2023-03-01T16:20:21;8.40;97.70
60027;DHT22;45891;53.006;6.512;2023-03-01T16:22:48;8.30;97.90
60027;DHT22;45891;53.006;6.512;2023-03-01T16:25:15;8.20;98.00
60027;DHT22;45891;53.006;6.512;2023-03-01T16:27:42;8.10;98.30
60027;DHT22;45891;53.006;6.512;2023-03-01T16:30:08;8.00;98.40
60027;DHT22;45891;53.006;6.512;2023-03-01T16:32:38;8.00;98.60
60027;DHT22;45891;53.006;6.512;2023-03-01T16:35:05;7.90;98.70
60027;DHT22;45891;53.006;6.512;2023-03-01T16:37:32;7.80;98.80
60027;DHT22;45891;53.006;6.512;2023-03-01T16:39:58;7.70;98.90
60027;DHT22;45891;53.006;6.512;2023-03-01T16:42:25;7.70;99.20
60027;DHT22;45891;53.006;6.512;2023-03-01T16:44:57;7.60;99.40
60027;DHT22;45891;53.006;6.512;2023-03-01T16:47:23;7.40;99.40
60027;DHT22;45891;53.006;6.512;2023-03-01T16:49:52;7.30;99.60
60027;DHT22;45891;53.006;6.512;2023-03-01T16:52:18;7.30;99.90
60027;DHT22;45891;53.006;6.512;2023-03-01T16:54:44;7.20;99.90
60027;DHT22;45891;53.006;6.512;2023-03-01T16:57:10;7.00;99.90
60027;DHT22;45891;53.006;6.512;2023-03-01T16:59:36;7.00;99.90
60027;DHT22;45891;53.006;6.512;2023-03-01T17:02:03;6.90;99.90
60027;DHT22;45891;53.006;6.512;2023-03-01T17:04:29;6.80;99.90
60027;DHT22;45891;53.006;6.512;2023-03-01T17:06:55;6.70;99.90
60027;DHT22;45891;53.006;6.512;2023-03-01T17:09:21;6.60;99.90
60027;DHT22;45891;53.006;6.512;2023-03-01T17:11:48;6.50;99.90
60027;DHT22;45891;53.006;6.512;2023-03-01T17:14:15;6.40;99.90
60027;DHT22;45891;53.006;6.512;2023-03-01T17:16:43;6.30;99.90
60027;DHT22;45891;53.006;6.512;2023-03-01T17:19:09;6.30;99.90
60027;DHT22;45891;53.006;6.512;2023-03-01T17:21:36;6.20;99.90
60027;DHT22;45891;53.006;6.512;2023-03-01T17:24:02;6.10;99.90
60027;DHT22;45891;53.006;6.512;2023-03-01T17:26:29;6.00;99.90
60027;DHT22;45891;53.006;6.512;2023-03-01T17:28:55;5.90;99.90